createdAt,value
2023-11-28T00:00:01.911Z,17.33
2023-11-28T00:00:15.688Z,17.65
2023-11-28T00:00:49.641Z,17.85
2023-11-28T00:01:20.498Z,16.98
2023-11-28T00:01:33.709Z,16.73
2023-11-28T00:01:46.802Z,17.10
2023-11-28T00:02:00.739Z,17.40
2023-11-28T00:02:13.863Z,17.38
2023-11-28T00:02:28.129Z,16.63
2023-11-28T00:02:41.020Z,17.02
2023-11-28T00:02:54.169Z,17.63
2023-11-28T00:03:07.091Z,17.52
2023-11-28T00:03:19.980Z,17.17
2023-11-28T00:03:33.298Z,16.88
2023-11-28T00:03:46.199Z,17.35
2023-11-28T00:03:59.890Z,17.13
2023-11-28T00:04:12.687Z,17.33
2023-11-28T00:04:25.482Z,17.58
2023-11-28T00:04:38.303Z,17.15
2023-11-28T00:04:51.456Z,17.17
2023-11-28T00:05:05.826Z,17.36
2023-11-28T00:05:18.661Z,17.10
2023-11-28T00:05:31.997Z,17.23
2023-11-28T00:05:45.715Z,17.60
2023-11-28T00:05:58.827Z,17.45
2023-11-28T00:06:16.595Z,16.92
2023-11-28T00:06:29.361Z,17.13
2023-11-28T00:06:42.047Z,17.52
2023-11-28T00:06:55.363Z,17.17
2023-11-28T00:07:08.030Z,17.17
2023-11-28T00:07:20.726Z,17.20
2023-11-28T00:07:34.713Z,17.33
2023-11-28T00:07:47.643Z,17.42
2023-11-28T00:08:01.484Z,17.40
2023-11-28T00:08:14.577Z,16.92
2023-11-28T00:08:27.969Z,17.35
2023-11-28T00:08:40.659Z,17.80
2023-11-28T00:08:53.388Z,17.73
2023-11-28T00:09:06.108Z,17.63
2023-11-28T00:09:20.145Z,17.30
2023-11-28T00:09:32.888Z,16.88
2023-11-28T00:09:46.415Z,17.13
2023-11-28T00:09:59.086Z,17.35
2023-11-28T00:10:11.915Z,17.65
2023-11-28T00:10:24.662Z,17.95
2023-11-28T00:10:37.768Z,18.88
2023-11-28T00:10:50.625Z,19.40
2023-11-28T00:11:05.929Z,19.30
2023-11-28T00:11:19.953Z,19.05
2023-11-28T00:11:34.286Z,18.08
2023-11-28T00:11:47.039Z,17.55
2023-11-28T00:11:59.687Z,17.05
2023-11-28T00:12:12.400Z,17.30
2023-11-28T00:12:25.680Z,17.17
2023-11-28T00:12:38.394Z,17.00
2023-11-28T00:12:51.476Z,17.13
2023-11-28T00:13:04.263Z,16.67
2023-11-28T00:13:17.556Z,16.27
2023-11-28T00:13:30.488Z,16.15
2023-11-28T00:13:44.284Z,16.17
2023-11-28T00:13:57.081Z,16.48
2023-11-28T00:14:09.896Z,16.58
2023-11-28T00:14:22.699Z,16.80
2023-11-28T00:14:35.574Z,17.27
2023-11-28T00:14:50.134Z,18.42
2023-11-28T00:15:02.915Z,19.65
2023-11-28T00:15:16.000Z,20.55
2023-11-28T00:15:28.717Z,21.58
2023-11-28T00:15:43.308Z,20.60
2023-11-28T00:15:56.035Z,19.50
2023-11-28T00:16:09.354Z,18.60
2023-11-28T00:16:23.120Z,18.27
2023-11-28T00:16:35.911Z,18.08
2023-11-28T00:16:49.005Z,17.77
2023-11-28T00:17:01.864Z,17.58
2023-11-28T00:17:14.830Z,17.40
2023-11-28T00:17:29.225Z,16.88
2023-11-28T00:17:42.245Z,17.13
2023-11-28T00:17:56.136Z,17.17
2023-11-28T00:18:09.055Z,17.00
2023-11-28T00:18:21.953Z,16.95
2023-11-28T00:18:34.821Z,17.20
2023-11-28T00:18:47.950Z,16.65
2023-11-28T00:19:00.838Z,15.90
2023-11-28T00:19:13.631Z,16.17
2023-11-28T00:19:26.429Z,16.92
2023-11-28T00:19:40.226Z,17.33
2023-11-28T00:19:52.933Z,17.65
2023-11-28T00:20:07.093Z,17.58
2023-11-28T00:20:20.050Z,17.73
2023-11-28T00:20:33.043Z,18.50
2023-11-28T00:20:46.047Z,18.98
2023-11-28T00:20:58.924Z,18.80
2023-11-28T00:21:13.075Z,19.25
2023-11-28T00:21:25.848Z,19.77
2023-11-28T00:21:38.634Z,19.58
2023-11-28T00:21:51.372Z,19.40
2023-11-28T00:22:05.882Z,19.33
2023-11-28T00:22:18.808Z,18.88
2023-11-28T00:22:31.562Z,18.40
2023-11-28T00:22:44.341Z,18.33
2023-11-28T00:22:57.095Z,17.65
2023-11-28T00:23:09.884Z,17.64
2023-11-28T00:23:23.396Z,17.00
2023-11-28T00:23:36.209Z,17.13
2023-11-28T00:23:48.988Z,17.27
2023-11-28T00:24:03.772Z,17.40
2023-11-28T00:24:16.714Z,16.80
2023-11-28T00:24:29.795Z,15.98
2023-11-28T00:24:42.526Z,16.17
2023-11-28T00:24:55.571Z,16.15
2023-11-28T00:25:09.148Z,15.45
2023-11-28T00:25:21.931Z,15.07
2023-11-28T00:25:34.801Z,14.82
2023-11-28T00:25:47.807Z,14.95
2023-11-28T00:26:01.934Z,15.07
2023-11-28T00:26:15.928Z,14.70
2023-11-28T00:26:28.728Z,14.48
2023-11-28T00:26:41.532Z,14.82
2023-11-28T00:26:54.613Z,15.35
2023-11-28T00:27:07.349Z,15.48
2023-11-28T00:27:20.142Z,15.88
2023-11-28T00:27:33.390Z,15.50
2023-11-28T00:27:48.596Z,14.52
2023-11-28T00:28:01.414Z,14.02
2023-11-28T00:28:14.201Z,14.20
2023-11-28T00:28:27.273Z,14.40
2023-11-28T00:28:40.342Z,14.60
2023-11-28T00:28:53.445Z,14.68
2023-11-28T00:29:06.220Z,15.02
2023-11-28T00:29:19.012Z,15.18
2023-11-28T00:29:31.814Z,15.05
2023-11-28T00:29:45.618Z,15.23
2023-11-28T00:29:58.494Z,15.75
2023-11-28T00:30:12.794Z,15.43
2023-11-28T00:30:25.746Z,14.82
2023-11-28T00:30:39.233Z,15.23
2023-11-28T00:30:52.426Z,15.10
2023-11-28T00:31:05.533Z,15.20
2023-11-28T00:31:18.362Z,15.25
2023-11-28T00:31:31.544Z,15.05
2023-11-28T00:31:44.590Z,14.90
2023-11-28T00:31:59.208Z,15.13
2023-11-28T00:32:12.333Z,15.43
2023-11-28T00:32:25.644Z,14.90
2023-11-28T00:32:39.903Z,14.65
2023-11-28T00:32:53.011Z,15.07
2023-11-28T00:33:05.828Z,15.57
2023-11-28T00:33:19.147Z,15.65
2023-11-28T00:33:31.899Z,15.57
2023-11-28T00:33:45.666Z,15.27
2023-11-28T00:33:58.582Z,15.48
2023-11-28T00:34:11.318Z,15.60
2023-11-28T00:34:24.459Z,15.38
2023-11-28T00:34:37.293Z,15.50
2023-11-28T00:34:50.090Z,15.60
2023-11-28T00:35:03.182Z,15.60
2023-11-28T00:35:16.321Z,15.50
2023-11-28T00:35:30.194Z,15.57
2023-11-28T00:35:45.259Z,15.65
2023-11-28T00:35:58.030Z,15.40
2023-11-28T00:36:10.768Z,15.52
2023-11-28T00:36:23.558Z,15.02
2023-11-28T00:36:36.490Z,14.77
2023-11-28T00:36:49.222Z,15.00
2023-11-28T00:37:02.060Z,15.32
2023-11-28T00:37:14.860Z,15.73
2023-11-28T00:37:27.644Z,15.35
2023-11-28T00:37:41.507Z,15.48
2023-11-28T00:37:54.490Z,15.38
2023-11-28T00:38:07.671Z,15.30
2023-11-28T00:38:20.432Z,15.48
2023-11-28T00:38:33.213Z,15.48
2023-11-28T00:38:46.012Z,15.60
2023-11-28T00:38:58.770Z,15.45
2023-11-28T00:39:12.687Z,15.15
2023-11-28T00:39:25.917Z,15.35
2023-11-28T00:39:41.553Z,14.98
2023-11-28T00:39:54.331Z,15.20
2023-11-28T00:40:12.394Z,15.90
2023-11-28T00:40:28.638Z,15.77
2023-11-28T00:40:41.837Z,15.27
2023-11-28T00:40:54.717Z,14.73
2023-11-28T00:41:08.419Z,14.75
2023-11-28T00:41:21.306Z,14.98
2023-11-28T00:41:34.333Z,15.15
2023-11-28T00:41:47.250Z,15.23
2023-11-28T00:42:04.354Z,15.45
2023-11-28T00:42:17.784Z,15.10
2023-11-28T00:42:30.507Z,14.80
2023-11-28T00:42:43.277Z,15.13
2023-11-28T00:42:56.030Z,15.65
2023-11-28T00:43:09.825Z,15.57
2023-11-28T00:43:22.952Z,15.35
2023-11-28T00:43:35.839Z,15.38
2023-11-28T00:43:50.013Z,15.18
2023-11-28T00:44:03.090Z,15.48
2023-11-28T00:44:16.012Z,15.73
2023-11-28T00:44:31.528Z,15.40
2023-11-28T00:44:44.235Z,14.50
2023-11-28T00:44:56.980Z,14.24
2023-11-28T00:45:10.859Z,14.30
2023-11-28T00:45:26.521Z,15.25
2023-11-28T00:45:41.000Z,15.63
2023-11-28T00:45:53.790Z,15.32
2023-11-28T00:46:11.773Z,15.40
2023-11-28T00:46:24.591Z,14.80
2023-11-28T00:46:40.109Z,14.88
2023-11-28T00:46:53.264Z,15.23
2023-11-28T00:47:10.615Z,15.20
2023-11-28T00:47:23.571Z,15.60
2023-11-28T00:47:36.508Z,15.52
2023-11-28T00:47:50.808Z,14.82
2023-11-28T00:48:04.335Z,14.82
2023-11-28T00:48:17.265Z,15.02
2023-11-28T00:48:30.076Z,15.25
2023-11-28T00:48:44.197Z,15.80
2023-11-28T00:48:57.805Z,15.80
2023-11-28T00:49:14.122Z,15.18
2023-11-28T00:49:26.902Z,14.60
2023-11-28T00:49:41.979Z,14.38
2023-11-28T00:49:54.772Z,14.63
2023-11-28T00:50:08.824Z,14.50
2023-11-28T00:50:21.705Z,14.45
2023-11-28T00:50:34.436Z,14.85
2023-11-28T00:50:47.492Z,15.00
2023-11-28T00:51:00.245Z,14.75
2023-11-28T00:51:15.803Z,14.50
2023-11-28T00:51:28.556Z,15.25
2023-11-28T00:51:42.931Z,15.32
2023-11-28T00:51:55.909Z,15.32
2023-11-28T00:52:09.273Z,15.35
2023-11-28T00:52:22.182Z,15.38
2023-11-28T00:52:35.037Z,15.34
2023-11-28T00:52:49.669Z,15.13
2023-11-28T00:53:02.465Z,15.10
2023-11-28T00:53:15.560Z,14.82
2023-11-28T00:53:28.287Z,14.63
2023-11-28T00:53:41.335Z,14.80
2023-11-28T00:53:54.077Z,14.55
2023-11-28T00:54:06.850Z,14.88
2023-11-28T00:54:19.598Z,15.38
2023-11-28T00:54:32.707Z,15.20
2023-11-28T00:54:45.591Z,15.30
2023-11-28T00:54:58.369Z,15.60
2023-11-28T00:55:11.423Z,15.02
2023-11-28T00:55:25.470Z,15.18
2023-11-28T00:55:38.395Z,15.10
2023-11-28T00:55:51.249Z,15.13
2023-11-28T00:56:05.209Z,15.45
2023-11-28T00:56:21.565Z,15.07
2023-11-28T00:56:34.292Z,14.75
2023-11-28T00:56:48.026Z,14.63
2023-11-28T00:57:01.925Z,14.90
2023-11-28T00:57:14.824Z,15.40
2023-11-28T00:57:28.600Z,15.43
2023-11-28T00:57:41.453Z,15.43
2023-11-28T00:57:54.813Z,15.32
2023-11-28T00:58:07.566Z,15.32
2023-11-28T00:58:20.609Z,15.10
2023-11-28T00:58:33.365Z,15.13
2023-11-28T00:58:46.450Z,15.57
2023-11-28T00:58:59.244Z,15.55
2023-11-28T00:59:14.088Z,15.20
2023-11-28T00:59:26.824Z,14.77
2023-11-28T00:59:39.624Z,14.75
2023-11-28T00:59:52.713Z,15.00
2023-11-28T01:00:08.269Z,15.30
2023-11-28T01:00:21.098Z,15.45
2023-11-28T01:00:34.832Z,15.57
2023-11-28T01:00:47.600Z,15.82
2023-11-28T01:01:00.329Z,15.82
2023-11-28T01:01:13.595Z,15.07
2023-11-28T01:01:27.695Z,14.98
2023-11-28T01:01:40.657Z,15.27
2023-11-28T01:01:53.795Z,15.23
2023-11-28T01:02:07.049Z,15.95
2023-11-28T01:02:20.130Z,15.93
2023-11-28T01:02:33.070Z,16.02
2023-11-28T01:02:46.096Z,15.95
2023-11-28T01:03:01.206Z,16.60
2023-11-28T01:03:14.310Z,16.70
2023-11-28T01:03:28.170Z,16.38
2023-11-28T01:03:41.065Z,16.02
2023-11-28T01:03:54.040Z,16.15
2023-11-28T01:04:06.947Z,16.23
2023-11-28T01:04:20.022Z,16.27
2023-11-28T01:04:33.026Z,16.52
2023-11-28T01:04:45.980Z,16.70
2023-11-28T01:04:59.229Z,16.67
2023-11-28T01:05:12.688Z,16.85
2023-11-28T01:05:26.535Z,17.23
2023-11-28T01:05:39.288Z,16.60
2023-11-28T01:05:52.329Z,16.17
2023-11-28T01:06:05.723Z,16.77
2023-11-28T01:06:18.642Z,17.00
2023-11-28T01:06:32.806Z,17.45
2023-11-28T01:06:45.587Z,17.50
2023-11-28T01:06:58.444Z,17.45
2023-11-28T01:07:12.275Z,17.75
2023-11-28T01:07:25.087Z,17.38
2023-11-28T01:07:38.355Z,17.10
2023-11-28T01:07:51.277Z,17.17
2023-11-28T01:08:04.335Z,17.02
2023-11-28T01:08:17.244Z,16.90
2023-11-28T01:08:29.984Z,16.63
2023-11-28T01:08:43.760Z,16.92
2023-11-28T01:08:58.679Z,16.83
2023-11-28T01:09:15.925Z,16.38
2023-11-28T01:09:28.807Z,16.13
2023-11-28T01:09:41.577Z,16.67
2023-11-28T01:09:54.552Z,17.05
2023-11-28T01:10:08.899Z,16.25
2023-11-28T01:10:21.692Z,15.88
2023-11-28T01:10:36.668Z,15.93
2023-11-28T01:10:51.493Z,16.15
2023-11-28T01:11:04.885Z,15.85
2023-11-28T01:11:17.814Z,15.82
2023-11-28T01:11:30.582Z,15.98
2023-11-28T01:11:43.526Z,16.00
2023-11-28T01:11:56.280Z,16.34
2023-11-28T01:12:09.178Z,16.15
2023-11-28T01:12:22.199Z,15.57
2023-11-28T01:12:34.926Z,15.88
2023-11-28T01:12:47.961Z,16.10
2023-11-28T01:13:00.710Z,15.75
2023-11-28T01:13:14.438Z,15.88
2023-11-28T01:13:27.179Z,15.48
2023-11-28T01:13:40.214Z,15.60
2023-11-28T01:13:53.054Z,16.05
2023-11-28T01:14:05.947Z,16.15
2023-11-28T01:14:18.918Z,16.23
2023-11-28T01:14:32.338Z,15.75
2023-11-28T01:14:45.452Z,15.70
2023-11-28T01:14:58.290Z,15.60
2023-11-28T01:15:12.494Z,16.65
2023-11-28T01:15:25.300Z,16.75
2023-11-28T01:15:38.198Z,16.15
2023-11-28T01:15:50.940Z,16.13
2023-11-28T01:16:04.205Z,16.08
2023-11-28T01:16:17.046Z,16.40
2023-11-28T01:16:29.922Z,16.52
2023-11-28T01:16:45.285Z,15.95
2023-11-28T01:16:58.106Z,15.82
2023-11-28T01:17:11.903Z,15.98
2023-11-28T01:17:24.920Z,15.80
2023-11-28T01:17:38.099Z,15.48
2023-11-28T01:17:50.923Z,15.63
2023-11-28T01:18:05.507Z,15.77
2023-11-28T01:18:18.384Z,16.00
2023-11-28T01:18:31.518Z,15.98
2023-11-28T01:18:46.031Z,15.73
2023-11-28T01:18:58.765Z,15.95
2023-11-28T01:19:12.003Z,16.55
2023-11-28T01:19:26.109Z,15.95
2023-11-28T01:19:39.601Z,16.10
2023-11-28T01:19:52.641Z,16.20
2023-11-28T01:20:06.854Z,15.68
2023-11-28T01:20:19.826Z,15.70
2023-11-28T01:20:32.559Z,15.60
2023-11-28T01:20:46.987Z,15.35
2023-11-28T01:20:59.757Z,15.50
2023-11-28T01:21:12.837Z,15.75
2023-11-28T01:21:25.556Z,15.57
2023-11-28T01:21:39.336Z,15.43
2023-11-28T01:21:52.600Z,15.32
2023-11-28T01:22:05.889Z,15.38
2023-11-28T01:22:18.819Z,15.63
2023-11-28T01:22:31.555Z,15.98
2023-11-28T01:22:44.471Z,15.95
2023-11-28T01:22:57.295Z,15.70
2023-11-28T01:23:10.508Z,15.90
2023-11-28T01:23:23.408Z,16.20
2023-11-28T01:23:37.168Z,16.15
2023-11-28T01:23:49.923Z,16.25
2023-11-28T01:24:02.681Z,16.77
2023-11-28T01:24:15.553Z,16.88
2023-11-28T01:24:28.544Z,16.85
2023-11-28T01:24:42.996Z,17.25
2023-11-28T01:24:56.017Z,17.77
2023-11-28T01:25:09.203Z,18.33
2023-11-28T01:25:21.961Z,19.13
2023-11-28T01:25:36.109Z,19.38
2023-11-28T01:25:48.977Z,19.50
2023-11-28T01:26:02.219Z,19.13
2023-11-28T01:26:15.015Z,19.48
2023-11-28T01:26:27.835Z,20.27
2023-11-28T01:26:40.563Z,21.23
2023-11-28T01:26:53.312Z,21.25
2023-11-28T01:27:06.130Z,20.60
2023-11-28T01:27:21.091Z,20.98
2023-11-28T01:27:33.842Z,21.55
2023-11-28T01:27:46.567Z,22.00
2023-11-28T01:27:59.441Z,22.05
2023-11-28T01:28:12.210Z,21.80
2023-11-28T01:28:24.975Z,21.80
2023-11-28T01:28:38.077Z,22.35
2023-11-28T01:28:50.850Z,22.00
2023-11-28T01:29:05.103Z,21.95
2023-11-28T01:29:19.047Z,21.63
2023-11-28T01:29:31.767Z,21.73
2023-11-28T01:29:44.527Z,22.30
2023-11-28T01:29:57.500Z,22.58
2023-11-28T01:30:13.423Z,22.23
2023-11-28T01:30:26.170Z,22.95
2023-11-28T01:30:38.970Z,22.98
2023-11-28T01:30:51.810Z,22.95
2023-11-28T01:31:06.365Z,22.85
2023-11-28T01:31:25.934Z,22.02
2023-11-28T01:31:38.836Z,22.17
2023-11-28T01:31:51.732Z,22.60
2023-11-28T01:32:05.143Z,23.15
2023-11-28T01:32:18.148Z,22.63
2023-11-28T01:32:31.459Z,22.70
2023-11-28T01:32:44.471Z,23.77
2023-11-28T01:32:57.337Z,23.63
2023-11-28T01:33:13.272Z,23.42
2023-11-28T01:33:26.059Z,23.83
2023-11-28T01:33:38.812Z,24.08
2023-11-28T01:33:51.655Z,24.13
2023-11-28T01:34:04.416Z,23.88
2023-11-28T01:34:29.551Z,23.88
2023-11-28T01:34:42.404Z,23.63
2023-11-28T01:34:55.332Z,24.67
2023-11-28T01:35:10.461Z,25.60
2023-11-28T01:35:23.285Z,26.13
2023-11-28T01:35:36.817Z,25.75
2023-11-28T01:35:49.611Z,25.15
2023-11-28T01:36:04.972Z,23.95
2023-11-28T01:36:18.143Z,23.67
2023-11-28T01:36:30.913Z,24.77
2023-11-28T01:36:44.623Z,25.75
2023-11-28T01:36:58.401Z,25.95
2023-11-28T01:37:11.694Z,25.98
2023-11-28T01:37:24.513Z,26.45
2023-11-28T01:37:37.754Z,27.30
2023-11-28T01:37:50.615Z,27.70
2023-11-28T01:38:04.202Z,27.15
2023-11-28T01:38:17.091Z,27.90
2023-11-28T01:38:29.839Z,28.70
2023-11-28T01:38:44.385Z,29.45
2023-11-28T01:38:57.140Z,29.52
2023-11-28T01:39:10.009Z,29.67
2023-11-28T01:39:22.928Z,30.35
2023-11-28T01:39:35.695Z,30.23
2023-11-28T01:39:48.616Z,30.70
2023-11-28T01:40:02.703Z,31.27
2023-11-28T01:40:15.629Z,31.67
2023-11-28T01:40:29.509Z,31.30
2023-11-28T01:40:42.426Z,30.23
2023-11-28T01:40:55.192Z,30.50
2023-11-28T01:41:09.511Z,30.88
2023-11-28T01:41:22.282Z,31.17
2023-11-28T01:41:35.197Z,31.85
2023-11-28T01:41:48.339Z,32.05
2023-11-28T01:42:01.116Z,31.85
2023-11-28T01:42:15.527Z,31.70
2023-11-28T01:42:28.274Z,31.52
2023-11-28T01:42:41.063Z,31.75
2023-11-28T01:42:53.869Z,31.30
2023-11-28T01:43:06.609Z,31.23
2023-11-28T01:43:25.858Z,31.40
2023-11-28T01:43:38.825Z,32.08
2023-11-28T01:43:52.990Z,32.13
2023-11-28T01:44:06.234Z,31.92
2023-11-28T01:44:19.093Z,32.53
2023-11-28T01:44:31.946Z,32.58
2023-11-28T01:44:45.187Z,33.10
2023-11-28T01:44:58.014Z,32.72
2023-11-28T01:45:11.140Z,32.17
2023-11-28T01:45:23.875Z,32.25
2023-11-28T01:45:37.643Z,32.08
2023-11-28T01:45:50.550Z,32.08
2023-11-28T01:46:05.413Z,32.13
2023-11-28T01:46:18.404Z,32.33
2023-11-28T01:46:33.028Z,32.25
2023-11-28T01:46:45.955Z,32.92
2023-11-28T01:46:59.673Z,33.10
2023-11-28T01:47:13.601Z,32.60
2023-11-28T01:47:27.457Z,32.10
2023-11-28T01:47:41.786Z,31.52
2023-11-28T01:47:55.688Z,32.47
2023-11-28T01:48:08.705Z,32.97
2023-11-28T01:48:23.910Z,32.75
2023-11-28T01:48:37.380Z,33.30
2023-11-28T01:48:51.173Z,33.38
2023-11-28T01:49:05.082Z,33.05
2023-11-28T01:49:20.883Z,32.95
2023-11-28T01:49:36.374Z,33.40
2023-11-28T01:49:49.337Z,32.78
2023-11-28T01:50:03.225Z,33.15
2023-11-28T01:50:16.094Z,33.72
2023-11-28T01:50:28.859Z,32.80
2023-11-28T01:50:44.135Z,32.78
2023-11-28T01:50:57.197Z,32.47
2023-11-28T01:51:11.637Z,32.03
2023-11-28T01:51:24.463Z,32.83
2023-11-28T01:51:38.350Z,33.58
2023-11-28T01:51:51.520Z,34.08
2023-11-28T01:52:05.533Z,34.33
2023-11-28T01:52:18.613Z,34.75
2023-11-28T01:52:32.969Z,35.35
2023-11-28T01:52:46.088Z,34.38
2023-11-28T01:52:59.916Z,33.88
2023-11-28T01:53:13.314Z,33.78
2023-11-28T01:53:26.860Z,33.22
2023-11-28T01:53:41.473Z,32.60
2023-11-28T01:53:57.536Z,32.88
2023-11-28T01:54:10.946Z,32.42
2023-11-28T01:54:23.741Z,32.80
2023-11-28T01:54:36.735Z,33.38
2023-11-28T01:54:50.200Z,32.60
2023-11-28T01:55:03.258Z,32.25
2023-11-28T01:55:18.336Z,33.17
2023-11-28T01:55:31.452Z,33.65
2023-11-28T01:55:44.609Z,32.88
2023-11-28T01:55:57.546Z,31.58
2023-11-28T01:56:12.051Z,31.08
2023-11-28T01:56:25.353Z,30.85
2023-11-28T01:56:38.353Z,31.52
2023-11-28T01:56:52.741Z,31.77
2023-11-28T01:57:06.458Z,31.92
2023-11-28T01:57:20.369Z,32.40
2023-11-28T01:57:34.015Z,33.00
2023-11-28T01:57:49.670Z,33.13
2023-11-28T01:58:02.756Z,32.70
2023-11-28T01:58:16.760Z,32.80
2023-11-28T01:58:30.135Z,32.72
2023-11-28T01:58:43.653Z,33.00
2023-11-28T01:58:57.095Z,32.67
2023-11-28T01:59:11.456Z,32.17
2023-11-28T01:59:24.393Z,32.08
2023-11-28T01:59:37.487Z,32.85
2023-11-28T01:59:50.312Z,32.70
2023-11-28T02:00:05.166Z,31.88
2023-11-28T02:00:18.784Z,31.85
2023-11-28T02:00:31.656Z,32.03
2023-11-28T02:00:45.442Z,31.52
2023-11-28T02:00:58.841Z,31.42
2023-11-28T02:01:12.637Z,31.48
2023-11-28T02:01:29.556Z,31.42
2023-11-28T02:01:44.838Z,31.45
2023-11-28T02:01:58.757Z,31.67
2023-11-28T02:02:12.227Z,31.35
2023-11-28T02:02:25.630Z,31.58
2023-11-28T02:02:38.693Z,31.77
2023-11-28T02:02:51.714Z,30.83
2023-11-28T02:03:08.846Z,30.17
2023-11-28T02:03:28.340Z,29.83
2023-11-28T02:03:43.291Z,29.58
2023-11-28T02:03:56.138Z,29.75
2023-11-28T02:04:09.293Z,29.65
2023-11-28T02:04:22.188Z,29.27
2023-11-28T02:04:35.130Z,29.48
2023-11-28T02:04:50.343Z,29.35
2023-11-28T02:05:04.040Z,29.02
2023-11-28T02:05:17.978Z,29.20
2023-11-28T02:05:31.234Z,29.23
2023-11-28T02:05:44.433Z,29.15
2023-11-28T02:05:58.304Z,29.00
2023-11-28T02:06:11.153Z,29.23
2023-11-28T02:06:23.899Z,29.40
2023-11-28T02:06:36.978Z,29.92
2023-11-28T02:06:50.655Z,29.83
2023-11-28T02:07:03.589Z,29.58
2023-11-28T02:07:17.475Z,29.15
2023-11-28T02:07:30.420Z,28.27
2023-11-28T02:07:43.925Z,27.60
2023-11-28T02:07:57.298Z,28.05
2023-11-28T02:08:11.281Z,27.77
2023-11-28T02:08:24.272Z,28.85
2023-11-28T02:08:37.118Z,28.63
2023-11-28T02:08:50.878Z,27.17
2023-11-28T02:09:03.880Z,27.05
2023-11-28T02:09:16.769Z,27.27
2023-11-28T02:09:29.727Z,27.85
2023-11-28T02:09:42.649Z,29.00
2023-11-28T02:09:56.169Z,29.13
2023-11-28T02:10:10.149Z,28.45
2023-11-28T02:10:24.520Z,28.20
2023-11-28T02:10:40.579Z,28.95
2023-11-28T02:10:53.573Z,28.73
2023-11-28T02:11:07.024Z,27.92
2023-11-28T02:11:20.141Z,26.90
2023-11-28T02:11:33.202Z,27.13
2023-11-28T02:11:46.042Z,28.15
2023-11-28T02:11:58.874Z,27.85
2023-11-28T02:12:12.685Z,27.63
2023-11-28T02:12:25.421Z,28.48
2023-11-28T02:12:38.251Z,28.15
2023-11-28T02:12:51.278Z,27.90
2023-11-28T02:13:04.133Z,27.70
2023-11-28T02:13:17.059Z,27.85
2023-11-28T02:13:31.637Z,28.42
2023-11-28T02:13:44.649Z,28.35
2023-11-28T02:13:57.417Z,28.23
2023-11-28T02:14:11.487Z,27.65
2023-11-28T02:14:24.597Z,27.73
2023-11-28T02:14:43.845Z,27.36
2023-11-28T02:14:56.656Z,27.70
2023-11-28T02:15:10.078Z,28.05
2023-11-28T02:15:41.083Z,27.65
2023-11-28T02:15:55.948Z,28.00
2023-11-28T02:16:12.991Z,27.88
2023-11-28T02:16:26.820Z,27.15
2023-11-28T02:16:39.634Z,27.27
2023-11-28T02:16:54.468Z,27.77
2023-11-28T02:17:07.578Z,27.63
2023-11-28T02:17:20.345Z,27.58
2023-11-28T02:17:33.151Z,27.20
2023-11-28T02:17:45.959Z,27.13
2023-11-28T02:17:58.706Z,26.70
2023-11-28T02:18:12.757Z,27.00
2023-11-28T02:18:27.908Z,27.17
2023-11-28T02:18:41.517Z,26.95
2023-11-28T02:18:54.248Z,26.67
2023-11-28T02:19:06.950Z,27.23
2023-11-28T02:19:19.644Z,26.98
2023-11-28T02:19:32.432Z,26.52
2023-11-28T02:19:48.396Z,26.92
2023-11-28T02:20:01.336Z,27.00
2023-11-28T02:20:14.129Z,26.45
2023-11-28T02:20:26.808Z,26.60
2023-11-28T02:20:41.677Z,27.85
2023-11-28T02:20:54.393Z,27.77
2023-11-28T02:21:07.887Z,27.40
2023-11-28T02:21:20.984Z,26.70
2023-11-28T02:21:33.735Z,26.45
2023-11-28T02:21:47.134Z,26.80
2023-11-28T02:21:59.936Z,26.65
2023-11-28T02:22:12.845Z,26.38
2023-11-28T02:22:27.385Z,27.00
2023-11-28T02:22:40.411Z,26.50
2023-11-28T02:22:53.244Z,26.65
2023-11-28T02:23:06.648Z,26.40
2023-11-28T02:23:19.467Z,26.30
2023-11-28T02:23:33.766Z,26.88
2023-11-28T02:23:46.595Z,26.98
2023-11-28T02:23:59.694Z,27.10
2023-11-28T02:24:15.725Z,26.88
2023-11-28T02:24:30.517Z,26.63
2023-11-28T02:24:45.656Z,26.70
2023-11-28T02:25:00.364Z,26.35
2023-11-28T02:25:13.618Z,27.02
2023-11-28T02:25:28.265Z,27.52
2023-11-28T02:25:45.205Z,26.95
2023-11-28T02:26:03.533Z,26.38
2023-11-28T02:26:23.809Z,25.73
2023-11-28T02:26:37.542Z,26.10
2023-11-28T02:26:50.238Z,26.40
2023-11-28T02:27:02.980Z,26.60
2023-11-28T02:27:15.749Z,25.98
2023-11-28T02:27:28.623Z,25.77
2023-11-28T02:27:41.305Z,25.75
2023-11-28T02:27:54.015Z,25.35
2023-11-28T02:28:07.214Z,25.00
2023-11-28T02:28:21.055Z,24.73
2023-11-28T02:28:33.838Z,26.25
2023-11-28T02:28:47.120Z,26.33
2023-11-28T02:29:00.994Z,25.70
2023-11-28T02:29:13.867Z,25.27
2023-11-28T02:29:27.054Z,25.58
2023-11-28T02:29:41.348Z,25.63
2023-11-28T02:29:54.054Z,25.70
2023-11-28T02:30:07.823Z,26.25
2023-11-28T02:30:20.637Z,25.92
2023-11-28T02:30:33.456Z,26.15
2023-11-28T02:30:49.315Z,26.45
2023-11-28T02:31:03.035Z,25.67
2023-11-28T02:31:15.826Z,24.90
2023-11-28T02:31:28.570Z,24.98
2023-11-28T02:31:41.410Z,26.02
2023-11-28T02:31:54.240Z,26.55
2023-11-28T02:32:07.421Z,26.52
2023-11-28T02:32:20.660Z,26.75
2023-11-28T02:32:33.542Z,25.98
2023-11-28T02:32:46.587Z,25.33
2023-11-28T02:32:59.365Z,25.80
2023-11-28T02:33:12.419Z,25.83
2023-11-28T02:33:26.938Z,25.35
2023-11-28T02:33:39.822Z,25.67
2023-11-28T02:33:53.141Z,25.70
2023-11-28T02:34:06.029Z,24.98
2023-11-28T02:34:18.775Z,24.95
2023-11-28T02:34:31.507Z,25.10
2023-11-28T02:34:44.346Z,25.20
2023-11-28T02:34:57.100Z,25.10
2023-11-28T02:35:17.485Z,25.45
2023-11-28T02:35:36.649Z,25.83
2023-11-28T02:35:49.624Z,25.60
2023-11-28T02:36:02.381Z,25.23
2023-11-28T02:36:15.981Z,25.50
2023-11-28T02:36:30.522Z,25.30
2023-11-28T02:36:43.260Z,24.75
2023-11-28T02:36:56.208Z,24.25
2023-11-28T02:37:08.962Z,24.30
2023-11-28T02:37:22.672Z,24.58
2023-11-28T02:37:35.539Z,24.55
2023-11-28T02:37:48.243Z,25.15
2023-11-28T02:38:01.010Z,26.25
2023-11-28T02:38:13.984Z,26.15
2023-11-28T02:38:26.697Z,25.15
2023-11-28T02:38:39.381Z,24.77
2023-11-28T02:38:52.371Z,24.75
2023-11-28T02:39:05.799Z,24.83
2023-11-28T02:39:19.653Z,24.65
2023-11-28T02:39:32.368Z,24.83
2023-11-28T02:39:45.095Z,25.38
2023-11-28T02:39:57.951Z,25.30
2023-11-28T02:40:10.913Z,25.70
2023-11-28T02:40:23.714Z,25.83
2023-11-28T02:40:36.674Z,25.75
2023-11-28T02:40:49.690Z,25.38
2023-11-28T02:41:02.519Z,25.17
2023-11-28T02:41:16.279Z,25.17
2023-11-28T02:41:30.465Z,24.92
2023-11-28T02:41:43.205Z,25.05
2023-11-28T02:41:55.891Z,24.45
2023-11-28T02:42:08.566Z,23.77
2023-11-28T02:42:21.301Z,23.78
2023-11-28T02:42:33.982Z,24.48
2023-11-28T02:42:46.785Z,24.20
2023-11-28T02:42:59.508Z,24.15
2023-11-28T02:43:13.300Z,23.98
2023-11-28T02:43:26.041Z,23.70
2023-11-28T02:43:38.783Z,23.65
2023-11-28T02:43:51.624Z,24.40
2023-11-28T02:44:04.692Z,24.38
2023-11-28T02:44:17.650Z,23.95
2023-11-28T02:44:30.672Z,23.67
2023-11-28T02:44:44.400Z,24.45
2023-11-28T02:44:57.149Z,24.55
2023-11-28T02:45:10.929Z,23.73
2023-11-28T02:45:24.667Z,23.38
2023-11-28T02:45:37.497Z,24.27
2023-11-28T02:45:50.253Z,24.52
2023-11-28T02:46:03.614Z,23.92
2023-11-28T02:46:16.377Z,23.15
2023-11-28T02:46:29.144Z,23.83
2023-11-28T02:46:43.159Z,23.73
2023-11-28T02:46:55.938Z,23.30
2023-11-28T02:47:08.887Z,23.20
2023-11-28T02:47:22.654Z,23.52
2023-11-28T02:47:35.381Z,23.75
2023-11-28T02:47:48.124Z,23.73
2023-11-28T02:48:00.937Z,24.17
2023-11-28T02:48:13.930Z,24.05
2023-11-28T02:48:26.886Z,23.60
2023-11-28T02:48:41.084Z,23.10
2023-11-28T02:48:53.825Z,22.88
2023-11-28T02:49:06.604Z,23.42
2023-11-28T02:49:19.379Z,24.02
2023-11-28T02:49:33.071Z,24.45
2023-11-28T02:49:45.802Z,24.20
2023-11-28T02:49:58.702Z,24.40
2023-11-28T02:50:11.454Z,24.20
2023-11-28T02:50:24.180Z,23.08
2023-11-28T02:50:38.695Z,22.65
2023-11-28T02:50:51.463Z,22.23
2023-11-28T02:51:06.072Z,22.55
2023-11-28T02:51:21.415Z,22.90
2023-11-28T02:51:34.278Z,23.42
2023-11-28T02:51:48.033Z,24.08
2023-11-28T02:52:00.728Z,24.70
2023-11-28T02:52:13.683Z,24.35
2023-11-28T02:52:27.094Z,24.35
2023-11-28T02:52:40.551Z,24.20
2023-11-28T02:52:53.666Z,24.48
2023-11-28T02:53:06.818Z,24.38
2023-11-28T02:53:19.629Z,24.40
2023-11-28T02:53:32.488Z,24.10
2023-11-28T02:53:46.202Z,24.42
2023-11-28T02:53:58.920Z,24.35